createdAt,value
2022-12-08T00:00:32.959Z,8.52
2022-12-08T00:01:35.128Z,8.50
2022-12-08T00:02:36.999Z,9.48
2022-12-08T00:03:38.877Z,10.13
2022-12-08T00:04:58.970Z,8.70
2022-12-08T00:06:20.145Z,9.20
2022-12-08T00:07:59.987Z,9.75
2022-12-08T00:09:19.910Z,9.50
2022-12-08T00:10:47.876Z,8.70
2022-12-08T00:11:43.093Z,9.50
2022-12-08T00:12:44.667Z,8.75
2022-12-08T00:13:46.463Z,8.88
2022-12-08T00:14:49.875Z,9.20
2022-12-08T00:15:51.464Z,9.27
2022-12-08T00:16:53.713Z,11.02
2022-12-08T00:17:55.364Z,12.95
2022-12-08T00:18:56.939Z,13.52
2022-12-08T00:19:58.515Z,12.50
2022-12-08T00:21:00.142Z,13.00
2022-12-08T00:22:03.231Z,12.00
2022-12-08T00:23:04.820Z,12.35
2022-12-08T00:24:07.356Z,12.55
2022-12-08T00:25:09.064Z,12.20
2022-12-08T00:26:10.778Z,12.47
2022-12-08T00:27:13.423Z,12.77
2022-12-08T00:28:15.034Z,12.38
2022-12-08T00:29:17.639Z,12.50
2022-12-08T00:30:19.532Z,12.07
2022-12-08T00:31:21.136Z,11.32
2022-12-08T00:32:22.838Z,10.98
2022-12-08T00:33:24.599Z,11.15
2022-12-08T00:34:26.478Z,10.73
2022-12-08T00:35:28.064Z,10.75
2022-12-08T00:36:29.733Z,9.90
2022-12-08T00:37:31.311Z,10.20
2022-12-08T00:38:32.902Z,10.85
2022-12-08T00:39:34.638Z,10.30
2022-12-08T00:40:36.398Z,10.10
2022-12-08T00:41:56.696Z,10.20
2022-12-08T00:42:58.269Z,11.02
2022-12-08T00:43:59.916Z,9.93
2022-12-08T00:45:01.506Z,10.60
2022-12-08T00:46:03.126Z,10.80
2022-12-08T00:47:04.919Z,10.23
2022-12-08T00:48:06.769Z,10.63
2022-12-08T00:49:08.547Z,10.40
2022-12-08T00:50:10.254Z,9.85
2022-12-08T00:51:11.943Z,10.13
2022-12-08T00:52:13.594Z,9.75
2022-12-08T00:53:15.222Z,9.13
2022-12-08T00:54:17.172Z,9.82
2022-12-08T00:55:18.826Z,9.98
2022-12-08T00:56:20.470Z,9.13
2022-12-08T00:57:22.043Z,9.33
2022-12-08T00:58:23.630Z,10.73
2022-12-08T00:59:25.221Z,8.77
2022-12-08T01:00:26.799Z,10.25
2022-12-08T01:01:28.546Z,9.93
2022-12-08T01:02:30.216Z,9.75
2022-12-08T01:03:31.886Z,10.02
2022-12-08T01:04:33.541Z,9.25
2022-12-08T01:05:35.135Z,9.18
2022-12-08T01:06:36.756Z,10.05
2022-12-08T01:07:39.026Z,9.13
2022-12-08T01:08:40.786Z,10.15
2022-12-08T01:09:42.562Z,10.43
2022-12-08T01:10:44.171Z,9.82
2022-12-08T01:11:45.964Z,10.23
2022-12-08T01:12:48.379Z,9.15
2022-12-08T01:13:50.020Z,9.57
2022-12-08T01:14:51.611Z,9.48
2022-12-08T01:15:53.178Z,10.68
2022-12-08T01:16:54.794Z,9.52
2022-12-08T01:17:56.437Z,9.70
2022-12-08T01:18:59.676Z,9.93
2022-12-08T01:20:02.664Z,9.40
2022-12-08T01:21:05.614Z,9.95
2022-12-08T01:22:07.219Z,9.40
2022-12-08T01:23:08.817Z,10.77
2022-12-08T01:24:14.667Z,10.25
2022-12-08T01:25:16.401Z,15.38
2022-12-08T01:26:18.602Z,15.07
2022-12-08T01:27:20.198Z,13.80
2022-12-08T01:28:21.794Z,12.43
2022-12-08T01:29:23.422Z,11.13
2022-12-08T01:30:25.006Z,12.10
2022-12-08T01:31:26.699Z,14.05
2022-12-08T01:32:28.351Z,14.57
2022-12-08T01:33:29.935Z,11.38
2022-12-08T01:34:31.689Z,10.40
2022-12-08T01:35:34.179Z,12.95
2022-12-08T01:36:39.211Z,14.68
2022-12-08T01:37:40.785Z,13.97
2022-12-08T01:38:42.363Z,14.05
2022-12-08T01:39:43.990Z,15.63
2022-12-08T01:40:45.647Z,13.98
2022-12-08T01:41:47.770Z,11.63
2022-12-08T01:42:49.971Z,13.05
2022-12-08T01:44:00.103Z,11.23
2022-12-08T01:45:03.040Z,10.75
2022-12-08T01:46:04.758Z,10.27
2022-12-08T01:47:06.485Z,9.85
2022-12-08T01:48:10.750Z,10.73
2022-12-08T01:49:18.947Z,10.73
2022-12-08T01:50:20.521Z,10.77
2022-12-08T01:51:22.097Z,10.57
2022-12-08T01:52:27.073Z,9.52
2022-12-08T01:53:30.756Z,9.95
2022-12-08T01:54:34.430Z,9.98
2022-12-08T01:55:39.336Z,9.43
2022-12-08T01:56:44.385Z,10.13
2022-12-08T01:57:48.078Z,10.60
2022-12-08T01:58:50.862Z,9.63
2022-12-08T02:00:08.626Z,9.20
2022-12-08T02:01:10.732Z,9.02
2022-12-08T02:02:12.619Z,9.80
2022-12-08T02:03:16.679Z,11.13
2022-12-08T02:04:18.289Z,10.13
2022-12-08T02:05:21.573Z,10.70
2022-12-08T02:06:23.152Z,10.68
2022-12-08T02:07:24.717Z,10.65
2022-12-08T02:08:26.360Z,12.43
2022-12-08T02:09:28.024Z,11.50
2022-12-08T02:10:30.468Z,11.35
2022-12-08T02:11:32.072Z,10.57
2022-12-08T02:12:33.643Z,10.23
2022-12-08T02:13:35.199Z,10.35
2022-12-08T02:14:36.800Z,9.82
2022-12-08T02:15:47.525Z,10.10
2022-12-08T02:17:08.248Z,10.43
2022-12-08T02:18:19.848Z,10.50
2022-12-08T02:19:31.624Z,11.13
2022-12-08T02:20:56.619Z,10.27
2022-12-08T02:22:07.024Z,10.25
2022-12-08T02:23:16.981Z,10.93
2022-12-08T02:24:32.536Z,9.90
2022-12-08T02:25:58.294Z,10.43
2022-12-08T02:27:24.519Z,9.98
2022-12-08T02:29:05.222Z,9.77
2022-12-08T02:30:13.006Z,10.38
2022-12-08T02:31:25.643Z,11.32
2022-12-08T02:32:42.036Z,10.30
2022-12-08T02:34:32.422Z,10.02
2022-12-08T02:35:39.493Z,10.07
2022-12-08T02:36:43.886Z,9.48
2022-12-08T02:38:00.178Z,9.80
2022-12-08T02:39:11.966Z,9.80
2022-12-08T02:40:26.744Z,9.63
2022-12-08T02:41:49.639Z,10.10
2022-12-08T02:43:12.787Z,9.93
2022-12-08T02:44:22.368Z,10.10
2022-12-08T02:46:05.908Z,11.17
2022-12-08T02:47:18.278Z,10.75
2022-12-08T02:48:19.907Z,9.30
2022-12-08T02:49:21.651Z,10.98
2022-12-08T02:50:23.250Z,10.88
2022-12-08T02:51:24.819Z,11.27
2022-12-08T02:52:26.365Z,10.90
2022-12-08T02:53:28.550Z,11.60
2022-12-08T02:54:30.174Z,11.82
2022-12-08T02:55:39.279Z,11.50
2022-12-08T02:56:57.543Z,11.48
2022-12-08T02:58:28.144Z,10.70
2022-12-08T02:59:35.687Z,10.77
2022-12-08T03:01:11.973Z,10.65
2022-12-08T03:02:32.088Z,10.18
2022-12-08T03:04:03.000Z,10.18
2022-12-08T03:05:45.066Z,10.60
2022-12-08T03:07:01.605Z,11.20
2022-12-08T03:08:33.444Z,11.00
2022-12-08T03:09:36.882Z,10.75
2022-12-08T03:10:43.788Z,10.07
2022-12-08T03:11:53.299Z,9.60
2022-12-08T03:13:31.420Z,10.00
2022-12-08T03:14:33.994Z,10.57
2022-12-08T03:15:35.673Z,10.55
2022-12-08T03:16:39.590Z,11.23
2022-12-08T03:17:43.109Z,10.98
2022-12-08T03:18:47.795Z,11.07
2022-12-08T03:19:49.374Z,11.25
2022-12-08T03:20:51.164Z,10.32
2022-12-08T03:22:02.880Z,11.35
2022-12-08T03:23:06.004Z,12.43
2022-12-08T03:24:08.090Z,10.68
2022-12-08T03:25:10.419Z,10.50
2022-12-08T03:26:23.724Z,13.65
2022-12-08T03:27:27.238Z,15.30
2022-12-08T03:28:28.828Z,15.60
2022-12-08T03:29:30.915Z,14.13
2022-12-08T03:30:32.921Z,12.88
2022-12-08T03:31:36.115Z,13.80
2022-12-08T03:32:50.027Z,13.65
2022-12-08T03:33:52.047Z,13.43
2022-12-08T03:34:53.636Z,13.48
2022-12-08T03:35:55.235Z,13.63
2022-12-08T03:36:56.828Z,13.38
2022-12-08T03:38:06.032Z,14.43
2022-12-08T03:39:07.614Z,14.83
2022-12-08T03:40:11.859Z,14.48
2022-12-08T03:41:19.683Z,15.48
2022-12-08T03:42:21.343Z,15.25
2022-12-08T03:43:22.930Z,15.38
2022-12-08T03:44:24.512Z,15.07
2022-12-08T03:45:26.154Z,14.98
2022-12-08T03:47:29.567Z,14.55
2022-12-08T03:48:32.118Z,14.43
2022-12-08T03:49:34.398Z,14.17
2022-12-08T03:50:36.041Z,13.85
2022-12-08T03:51:37.712Z,13.07
2022-12-08T03:52:39.283Z,14.45
2022-12-08T03:53:40.993Z,13.57
2022-12-08T03:54:43.292Z,12.55
2022-12-08T03:55:44.855Z,13.48
2022-12-08T03:56:47.034Z,14.25
2022-12-08T03:57:48.626Z,13.65
2022-12-08T03:58:50.829Z,12.95
2022-12-08T03:59:52.410Z,11.63
2022-12-08T04:00:54.575Z,10.45
2022-12-08T04:01:56.216Z,11.63
2022-12-08T04:02:57.904Z,11.90
2022-12-08T04:04:00.199Z,13.25
2022-12-08T04:05:01.756Z,11.57
2022-12-08T04:06:03.351Z,12.02
2022-12-08T04:07:05.848Z,12.73
2022-12-08T04:08:07.548Z,12.60
2022-12-08T04:09:09.140Z,12.48
2022-12-08T04:10:11.451Z,11.83
2022-12-08T04:11:13.062Z,11.75
2022-12-08T04:12:14.649Z,12.43
2022-12-08T04:13:16.248Z,12.90
2022-12-08T04:14:17.858Z,13.93
2022-12-08T04:15:19.616Z,13.73
2022-12-08T04:16:23.499Z,14.07
2022-12-08T04:17:25.098Z,13.77
2022-12-08T04:18:26.680Z,14.93
2022-12-08T04:19:28.265Z,15.10
2022-12-08T04:20:30.259Z,15.80
2022-12-08T04:21:32.131Z,15.13
2022-12-08T04:22:33.765Z,14.82
2022-12-08T04:23:35.555Z,14.80
2022-12-08T04:24:37.157Z,14.68
2022-12-08T04:25:38.743Z,16.73
2022-12-08T04:26:41.543Z,15.75
2022-12-08T04:27:43.120Z,16.00
2022-12-08T04:28:44.734Z,15.65
2022-12-08T04:29:47.152Z,16.10
2022-12-08T04:30:49.563Z,16.08
2022-12-08T04:31:51.204Z,16.83
2022-12-08T04:32:52.811Z,16.00
2022-12-08T04:33:54.452Z,16.73
2022-12-08T04:34:56.560Z,16.08
2022-12-08T04:35:58.141Z,18.20
2022-12-08T04:36:59.720Z,17.90
2022-12-08T04:38:01.391Z,17.73
2022-12-08T04:39:02.989Z,17.83
2022-12-08T04:40:06.160Z,17.60
2022-12-08T04:41:08.036Z,17.38
2022-12-08T04:42:09.610Z,17.80
2022-12-08T04:43:11.218Z,18.05
2022-12-08T04:44:12.802Z,17.58
2022-12-08T04:45:15.318Z,18.02
2022-12-08T04:46:16.961Z,16.70
2022-12-08T04:47:19.166Z,19.05
2022-12-08T04:48:21.123Z,18.75
2022-12-08T04:49:23.822Z,18.77
2022-12-08T04:50:25.390Z,17.90
2022-12-08T04:51:27.400Z,17.63
2022-12-08T04:52:29.017Z,18.83
2022-12-08T04:53:30.587Z,17.58
2022-12-08T04:54:32.151Z,18.65
2022-12-08T04:55:34.112Z,19.10
2022-12-08T04:56:35.681Z,18.67
2022-12-08T04:57:37.263Z,18.15
2022-12-08T04:58:38.841Z,18.58
2022-12-08T04:59:40.474Z,18.63
2022-12-08T05:00:43.506Z,18.92
2022-12-08T05:01:45.193Z,18.50
2022-12-08T05:02:47.038Z,18.48
2022-12-08T05:03:48.664Z,17.63
2022-12-08T05:04:50.292Z,19.10
2022-12-08T05:05:52.900Z,17.58
2022-12-08T05:06:54.774Z,18.88
2022-12-08T05:07:56.384Z,18.58
2022-12-08T05:08:57.979Z,18.53
2022-12-08T05:09:59.565Z,19.08
2022-12-08T05:11:09.010Z,18.63
2022-12-08T05:12:10.601Z,18.83
2022-12-08T05:13:12.308Z,18.50
2022-12-08T05:14:15.236Z,18.75
2022-12-08T05:15:16.807Z,18.88
2022-12-08T05:16:18.527Z,18.52
2022-12-08T05:17:20.171Z,17.37
2022-12-08T05:18:21.747Z,18.45
2022-12-08T05:19:23.459Z,18.90
2022-12-08T05:20:25.079Z,19.30
2022-12-08T05:21:26.676Z,18.52
2022-12-08T05:22:28.308Z,19.05
2022-12-08T05:23:29.923Z,20.10
2022-12-08T05:24:31.471Z,20.38
2022-12-08T05:25:33.056Z,18.55
2022-12-08T05:26:34.718Z,19.47
2022-12-08T05:27:36.578Z,19.30
2022-12-08T05:28:42.630Z,18.48
2022-12-08T05:29:45.040Z,19.40
2022-12-08T05:30:46.654Z,18.48
2022-12-08T05:31:48.420Z,19.23
2022-12-08T05:32:50.073Z,19.30
2022-12-08T05:33:51.968Z,18.45
2022-12-08T05:34:53.547Z,19.47
2022-12-08T05:35:55.107Z,19.50
2022-12-08T05:36:56.779Z,18.05
2022-12-08T05:37:58.372Z,19.40
2022-12-08T05:38:59.943Z,19.55
2022-12-08T05:40:01.901Z,18.85
2022-12-08T05:41:03.944Z,19.90
2022-12-08T05:42:05.675Z,18.48
2022-12-08T05:43:07.284Z,18.83
2022-12-08T05:44:08.932Z,18.58
2022-12-08T05:45:10.851Z,18.40
2022-12-08T05:46:12.498Z,19.45
2022-12-08T05:47:14.214Z,19.35
2022-12-08T05:48:16.009Z,19.42
2022-12-08T05:49:17.905Z,19.30
2022-12-08T05:50:19.471Z,17.45
2022-12-08T05:51:23.219Z,18.52
2022-12-08T05:52:24.796Z,18.80
2022-12-08T05:53:26.427Z,18.27
2022-12-08T05:54:27.990Z,19.35
2022-12-08T05:55:29.580Z,19.08
2022-12-08T05:56:31.150Z,19.52
2022-12-08T05:57:32.802Z,19.92
2022-12-08T05:58:34.375Z,19.40
2022-12-08T05:59:37.596Z,18.67
2022-12-08T06:00:39.188Z,19.93
2022-12-08T06:01:40.856Z,19.70
2022-12-08T06:02:42.746Z,18.75
2022-12-08T06:03:44.499Z,19.25
2022-12-08T06:04:46.129Z,20.92
2022-12-08T06:05:47.848Z,19.65
2022-12-08T06:06:49.498Z,18.75
2022-12-08T06:07:51.169Z,20.10
2022-12-08T06:08:53.203Z,21.67
2022-12-08T06:09:54.869Z,20.27
2022-12-08T06:10:56.435Z,20.15
2022-12-08T06:11:58.004Z,20.50
2022-12-08T06:12:59.667Z,20.30
2022-12-08T06:14:01.417Z,19.98
2022-12-08T06:15:03.064Z,20.30
2022-12-08T06:16:06.119Z,20.20
2022-12-08T06:17:07.803Z,20.33
2022-12-08T06:18:09.794Z,19.65
2022-12-08T06:19:11.426Z,21.17
2022-12-08T06:20:13.033Z,20.63
2022-12-08T06:21:15.066Z,20.45
2022-12-08T06:22:16.645Z,21.10
2022-12-08T06:23:18.385Z,20.88
2022-12-08T06:24:20.219Z,21.58
2022-12-08T06:25:22.096Z,20.15
2022-12-08T06:26:23.985Z,20.02
2022-12-08T06:27:25.584Z,20.77
2022-12-08T06:28:27.201Z,20.02
2022-12-08T06:29:28.770Z,20.45
2022-12-08T06:30:30.430Z,19.77
2022-12-08T06:31:32.113Z,20.38
2022-12-08T06:32:33.757Z,20.38
2022-12-08T06:33:35.482Z,20.40
2022-12-08T06:34:37.200Z,20.60
2022-12-08T06:35:38.846Z,21.23
2022-12-08T06:36:40.438Z,20.08
2022-12-08T06:37:42.026Z,22.53
2022-12-08T06:38:44.147Z,20.95
2022-12-08T06:39:46.139Z,20.15
2022-12-08T06:40:56.387Z,20.50
2022-12-08T06:42:20.765Z,19.45
2022-12-08T06:43:22.330Z,20.63
2022-12-08T06:44:24.055Z,20.67
2022-12-08T06:45:25.758Z,20.80
2022-12-08T06:46:27.385Z,20.13
2022-12-08T06:47:29.101Z,21.88
2022-12-08T06:48:30.895Z,21.10
2022-12-08T06:49:32.504Z,22.67
2022-12-08T06:50:35.110Z,21.33
2022-12-08T06:51:36.719Z,20.77
2022-12-08T06:52:47.263Z,21.05
2022-12-08T06:53:54.793Z,22.23
2022-12-08T06:54:56.397Z,22.65
2022-12-08T06:55:59.658Z,22.30
2022-12-08T06:57:01.570Z,21.77
2022-12-08T06:58:03.163Z,23.80
2022-12-08T06:59:04.801Z,25.60
2022-12-08T07:00:07.183Z,27.88
2022-12-08T07:01:13.040Z,23.25
2022-12-08T07:02:14.751Z,25.85
2022-12-08T07:03:16.470Z,28.02
2022-12-08T07:04:18.145Z,25.65
2022-12-08T07:05:19.799Z,24.58
2022-12-08T07:06:23.521Z,23.92
2022-12-08T07:07:25.186Z,22.37
2022-12-08T07:08:26.844Z,21.90
2022-12-08T07:09:28.588Z,23.70
2022-12-08T07:10:30.232Z,23.77
2022-12-08T07:11:31.802Z,23.70
2022-12-08T07:12:33.478Z,23.92
2022-12-08T07:13:35.038Z,23.10
2022-12-08T07:14:36.602Z,22.83
2022-12-08T07:15:38.191Z,25.00
2022-12-08T07:16:39.878Z,23.83
2022-12-08T07:17:41.474Z,26.52
2022-12-08T07:18:44.139Z,25.15
2022-12-08T07:19:45.782Z,26.85
2022-12-08T07:20:47.468Z,27.17
2022-12-08T07:21:49.112Z,27.50
2022-12-08T07:22:53.600Z,29.17
2022-12-08T07:23:57.894Z,26.98
2022-12-08T07:24:59.785Z,26.90
2022-12-08T07:26:05.300Z,26.70
2022-12-08T07:27:06.904Z,28.63
2022-12-08T07:28:10.045Z,27.58
2022-12-08T07:29:11.645Z,27.70
2022-12-08T07:30:13.853Z,26.25
2022-12-08T07:31:23.174Z,27.73
2022-12-08T07:32:24.771Z,26.33
2022-12-08T07:33:26.483Z,26.00
2022-12-08T07:34:28.145Z,27.95
2022-12-08T07:35:29.748Z,28.08
2022-12-08T07:36:32.668Z,27.17
2022-12-08T07:37:34.410Z,27.95
2022-12-08T07:38:35.985Z,28.77
2022-12-08T07:39:37.626Z,31.67
2022-12-08T07:40:39.391Z,30.45
2022-12-08T07:41:41.019Z,27.13
2022-12-08T07:42:42.638Z,27.85
2022-12-08T07:43:44.288Z,29.38
2022-12-08T07:44:45.887Z,28.98
2022-12-08T07:45:47.774Z,27.37
2022-12-08T07:46:49.441Z,26.42
2022-12-08T07:47:51.013Z,28.83
2022-12-08T07:48:53.587Z,26.23
2022-12-08T07:49:55.200Z,30.50
2022-12-08T07:51:03.641Z,30.05
2022-12-08T07:52:05.292Z,28.92
2022-12-08T07:53:07.004Z,30.42
2022-12-08T07:54:13.937Z,30.02
2022-12-08T07:55:15.527Z,29.98
2022-12-08T07:56:17.105Z,29.80
2022-12-08T07:57:18.782Z,28.13
2022-12-08T07:58:20.355Z,28.65
2022-12-08T07:59:21.967Z,29.70
2022-12-08T08:00:23.624Z,29.48
2022-12-08T08:01:26.975Z,30.77
2022-12-08T08:02:28.931Z,27.55
2022-12-08T08:03:30.692Z,30.20
2022-12-08T08:04:32.294Z,29.35
2022-12-08T08:05:33.882Z,27.23
2022-12-08T08:06:36.429Z,30.77
2022-12-08T08:07:38.783Z,28.20
2022-12-08T08:08:40.448Z,28.75
2022-12-08T08:09:42.009Z,28.45
2022-12-08T08:10:43.700Z,28.73
2022-12-08T08:12:01.139Z,27.67
2022-12-08T08:13:06.880Z,27.35
2022-12-08T08:14:08.464Z,26.23
2022-12-08T08:15:10.183Z,26.05
2022-12-08T08:16:13.492Z,26.77
2022-12-08T08:17:15.407Z,27.23
2022-12-08T08:18:17.093Z,26.38
2022-12-08T08:19:19.229Z,26.67
2022-12-08T08:20:21.234Z,25.92
2022-12-08T08:21:44.489Z,26.08
2022-12-08T08:22:46.241Z,25.05
2022-12-08T08:23:47.890Z,23.55
2022-12-08T08:24:49.516Z,25.75
2022-12-08T08:25:51.176Z,25.67
2022-12-08T08:26:53.648Z,23.60
2022-12-08T08:27:55.328Z,24.85
2022-12-08T08:28:56.959Z,23.58
2022-12-08T08:29:58.631Z,23.60
2022-12-08T08:31:00.318Z,25.13
2022-12-08T08:32:01.915Z,23.05
2022-12-08T08:33:03.478Z,22.42
2022-12-08T08:34:06.618Z,24.02
2022-12-08T08:35:08.918Z,23.50
2022-12-08T08:36:10.964Z,25.25
2022-12-08T08:37:12.625Z,23.53
2022-12-08T08:38:14.345Z,22.10
2022-12-08T08:39:16.026Z,22.65
2022-12-08T08:40:18.146Z,21.55
2022-12-08T08:41:19.734Z,22.38
2022-12-08T08:42:21.306Z,26.73
2022-12-08T08:43:37.829Z,25.48
2022-12-08T08:44:40.141Z,25.55
2022-12-08T08:45:41.729Z,23.15
2022-12-08T08:46:43.512Z,24.90
2022-12-08T08:47:45.266Z,23.00
2022-12-08T08:48:47.088Z,25.55
2022-12-08T08:49:48.668Z,23.85
2022-12-08T08:50:50.235Z,22.55
2022-12-08T08:51:51.910Z,21.30
2022-12-08T08:52:53.565Z,20.55
2022-12-08T08:53:55.159Z,20.98
2022-12-08T08:54:56.731Z,21.10
2022-12-08T08:55:58.409Z,21.20
2022-12-08T08:57:00.292Z,31.92
2022-12-08T08:58:01.945Z,37.53
2022-12-08T08:59:03.884Z,45.38
2022-12-08T09:00:06.413Z,43.00
2022-12-08T09:01:08.224Z,41.63
2022-12-08T09:02:16.529Z,39.95
2022-12-08T09:03:19.040Z,36.75
2022-12-08T09:04:21.544Z,34.10
2022-12-08T09:05:23.246Z,26.70
2022-12-08T09:06:25.365Z,28.05
2022-12-08T09:07:27.012Z,29.83
2022-12-08T09:08:28.652Z,28.17
2022-12-08T09:09:31.223Z,22.85
2022-12-08T09:10:32.882Z,19.77
2022-12-08T09:11:34.549Z,18.17
2022-12-08T09:12:36.128Z,19.02
2022-12-08T09:13:37.838Z,18.95
2022-12-08T09:14:39.604Z,18.48
2022-12-08T09:15:41.364Z,18.48
2022-12-08T09:16:43.173Z,18.27
2022-12-08T09:17:44.835Z,19.92
2022-12-08T09:18:46.570Z,18.23
2022-12-08T09:19:48.161Z,20.58
2022-12-08T09:20:49.790Z,19.92
2022-12-08T09:21:51.473Z,18.38
2022-12-08T09:22:53.055Z,21.05
2022-12-08T09:23:58.257Z,19.92
2022-12-08T09:24:59.854Z,18.92
2022-12-08T09:26:02.257Z,20.52
2022-12-08T09:27:03.927Z,19.50
2022-12-08T09:28:05.525Z,21.73
2022-12-08T09:29:07.124Z,21.70
2022-12-08T09:30:09.169Z,20.42
2022-12-08T09:31:10.891Z,21.80
2022-12-08T09:32:12.629Z,20.40
2022-12-08T09:33:14.222Z,21.90
2022-12-08T09:34:15.829Z,20.45
2022-12-08T09:35:17.459Z,20.05
2022-12-08T09:36:19.479Z,20.80
2022-12-08T09:37:21.255Z,21.90
2022-12-08T09:38:22.931Z,23.73
2022-12-08T09:39:24.512Z,20.77
2022-12-08T09:40:26.177Z,19.65
2022-12-08T09:41:50.035Z,19.88
2022-12-08T09:43:05.709Z,19.08
2022-12-08T09:44:33.375Z,17.02
2022-12-08T09:45:35.125Z,17.33
2022-12-08T09:46:36.832Z,18.15
2022-12-08T09:47:44.150Z,19.90
2022-12-08T09:48:51.946Z,18.20
2022-12-08T09:50:02.236Z,19.23
2022-12-08T09:51:04.260Z,18.67
2022-12-08T09:52:06.261Z,18.50
2022-12-08T09:53:15.121Z,17.58
2022-12-08T09:54:25.710Z,17.63
2022-12-08T09:55:39.728Z,17.92
2022-12-08T09:56:42.606Z,17.92
2022-12-08T09:57:44.873Z,17.45
2022-12-08T09:59:01.768Z,17.52
2022-12-08T10:00:05.509Z,18.33
2022-12-08T10:01:10.176Z,18.42
2022-12-08T10:02:25.380Z,18.80
2022-12-08T10:03:28.218Z,17.98
2022-12-08T10:04:33.929Z,18.80
2022-12-08T10:05:36.351Z,19.58
2022-12-08T10:06:44.673Z,18.95
2022-12-08T10:07:49.681Z,18.50
2022-12-08T10:09:17.206Z,18.52
2022-12-08T10:10:29.434Z,18.05
2022-12-08T10:11:44.502Z,18.48
2022-12-08T10:13:08.856Z,18.75
2022-12-08T10:14:22.402Z,17.83
2022-12-08T10:15:31.076Z,18.15
2022-12-08T10:16:42.345Z,18.58
2022-12-08T10:17:54.081Z,18.92
2022-12-08T10:19:15.818Z,19.50
2022-12-08T10:20:19.820Z,18.48
2022-12-08T10:21:22.915Z,19.00
2022-12-08T10:22:26.378Z,18.02
2022-12-08T10:23:33.249Z,17.95
2022-12-08T10:24:37.418Z,16.50
2022-12-08T10:26:08.178Z,18.33
2022-12-08T10:27:12.650Z,17.75
2022-12-08T10:28:14.221Z,15.25
2022-12-08T10:29:15.879Z,15.80
2022-12-08T10:30:18.853Z,16.20
2022-12-08T10:31:22.953Z,15.05
2022-12-08T10:32:24.764Z,15.00
2022-12-08T10:33:26.522Z,14.35
2022-12-08T10:34:28.218Z,16.63
2022-12-08T10:35:53.757Z,16.67
2022-12-08T10:36:56.843Z,15.07
2022-12-08T10:38:02.470Z,15.52
2022-12-08T10:39:04.158Z,17.35
2022-12-08T10:40:08.950Z,16.30
2022-12-08T10:41:10.550Z,15.15
2022-12-08T10:42:14.841Z,16.20
2022-12-08T10:43:19.121Z,16.05
2022-12-08T10:44:21.333Z,15.48
2022-12-08T10:45:25.895Z,15.73
2022-12-08T10:46:28.114Z,15.52
2022-12-08T10:47:29.913Z,14.90
2022-12-08T10:48:31.692Z,14.60
2022-12-08T10:49:35.505Z,15.05
2022-12-08T10:50:41.789Z,15.82
2022-12-08T10:51:43.885Z,16.38
2022-12-08T10:52:45.669Z,13.85
2022-12-08T10:53:47.363Z,14.05
2022-12-08T10:54:53.230Z,13.85
2022-12-08T10:56:03.894Z,14.10
2022-12-08T10:57:05.543Z,14.60
2022-12-08T10:58:28.964Z,14.77
2022-12-08T10:59:33.244Z,14.55
2022-12-08T11:00:34.928Z,14.50
2022-12-08T11:01:38.242Z,14.80
2022-12-08T11:02:57.585Z,13.90
2022-12-08T11:04:00.742Z,14.25
2022-12-08T11:05:02.373Z,13.90
2022-12-08T11:06:11.972Z,14.77
2022-12-08T11:07:20.811Z,14.40
2022-12-08T11:08:22.441Z,13.68
2022-12-08T11:09:34.593Z,12.83
2022-12-08T11:10:43.735Z,14.05
2022-12-08T11:11:49.194Z,13.00
2022-12-08T11:12:50.833Z,13.85
2022-12-08T11:13:52.423Z,13.65
2022-12-08T11:15:01.494Z,13.85
2022-12-08T11:16:03.117Z,12.80
2022-12-08T11:17:09.619Z,14.45
2022-12-08T11:18:30.543Z,12.93
2022-12-08T11:19:32.182Z,12.60
2022-12-08T11:20:42.938Z,12.23
2022-12-08T11:21:44.588Z,11.43
2022-12-08T11:22:51.080Z,11.48
2022-12-08T11:23:52.696Z,11.65
2022-12-08T11:25:08.033Z,12.63
2022-12-08T11:26:33.667Z,11.65
2022-12-08T11:27:36.779Z,11.45
2022-12-08T11:28:38.388Z,12.45
2022-12-08T11:29:40.028Z,12.38
2022-12-08T11:30:44.959Z,12.57
2022-12-08T11:32:07.194Z,11.60
2022-12-08T11:33:27.871Z,11.73
2022-12-08T11:34:37.009Z,11.25
2022-12-08T11:35:40.316Z,11.93
2022-12-08T11:36:41.928Z,12.65
2022-12-08T11:37:43.556Z,12.80
2022-12-08T11:38:46.814Z,12.40
2022-12-08T11:39:50.104Z,12.27
2022-12-08T11:40:57.836Z,12.63
2022-12-08T11:41:59.408Z,12.48
2022-12-08T11:43:08.644Z,13.53
2022-12-08T11:44:10.211Z,14.43
2022-12-08T11:45:13.903Z,12.52
2022-12-08T11:46:20.209Z,12.27
2022-12-08T11:47:57.588Z,13.30
2022-12-08T11:49:11.128Z,13.02
2022-12-08T11:50:43.220Z,12.27
2022-12-08T11:51:55.063Z,11.65
2022-12-08T11:52:56.631Z,12.15
2022-12-08T11:54:22.641Z,11.05
2022-12-08T11:55:41.617Z,11.03
2022-12-08T11:56:48.634Z,11.32
2022-12-08T11:57:50.238Z,11.57
2022-12-08T11:58:56.789Z,10.73
2022-12-08T11:59:58.479Z,12.05
2022-12-08T12:01:00.580Z,11.90
2022-12-08T12:02:03.072Z,12.65
2022-12-08T12:03:15.693Z,13.15
2022-12-08T12:04:19.728Z,14.10
2022-12-08T12:07:26.387Z,11.17
2022-12-08T12:09:03.015Z,13.15
2022-12-08T12:10:07.658Z,13.50
2022-12-08T12:11:43.775Z,11.63
2022-12-08T12:12:59.669Z,11.73
2022-12-08T12:14:16.977Z,11.02
2022-12-08T12:15:43.605Z,10.60
2022-12-08T12:16:58.116Z,10.75
2022-12-08T12:18:16.940Z,10.93
2022-12-08T12:19:18.903Z,12.50
2022-12-08T12:20:30.315Z,10.30
2022-12-08T12:21:43.954Z,11.15
2022-12-08T12:22:48.545Z,12.85
2022-12-08T12:24:00.957Z,12.23
2022-12-08T12:25:02.656Z,12.07
2022-12-08T12:26:07.088Z,12.70
2022-12-08T12:27:39.627Z,13.52
2022-12-08T12:28:44.345Z,12.88
2022-12-08T12:30:05.296Z,13.20
2022-12-08T12:31:08.656Z,11.88
2022-12-08T12:32:10.584Z,10.80
2022-12-08T12:33:13.544Z,11.93
2022-12-08T12:34:31.996Z,11.18
2022-12-08T12:35:37.089Z,11.57
2022-12-08T12:36:56.094Z,16.38
2022-12-08T12:38:01.160Z,13.13
2022-12-08T12:39:04.308Z,11.82
2022-12-08T12:40:07.955Z,12.88
2022-12-08T12:41:09.888Z,11.00
2022-12-08T12:42:33.020Z,14.07
2022-12-08T12:43:35.875Z,13.63
2022-12-08T12:44:39.507Z,14.15
2022-12-08T12:45:44.012Z,13.32
2022-12-08T12:46:48.843Z,15.38
2022-12-08T12:47:57.833Z,12.77
2022-12-08T12:49:37.988Z,12.32
2022-12-08T12:50:52.287Z,12.38
2022-12-08T12:51:56.674Z,12.70
2022-12-08T12:53:13.972Z,12.00
2022-12-08T12:54:25.628Z,10.68
2022-12-08T12:55:28.327Z,10.50
2022-12-08T12:57:04.881Z,10.57
2022-12-08T12:58:28.009Z,11.18
2022-12-08T12:59:29.530Z,11.63
2022-12-08T13:00:31.145Z,10.35
2022-12-08T13:01:49.835Z,10.63
2022-12-08T13:02:52.623Z,10.50
2022-12-08T13:04:08.232Z,11.23
2022-12-08T13:05:20.445Z,13.68
2022-12-08T13:06:23.926Z,14.40
2022-12-08T13:07:33.490Z,12.90
2022-12-08T13:08:35.087Z,12.95
2022-12-08T13:09:37.599Z,18.25
2022-12-08T13:10:39.992Z,16.05
2022-12-08T13:11:52.412Z,15.10
2022-12-08T13:13:03.062Z,17.10
2022-12-08T13:14:04.748Z,15.50
2022-12-08T13:15:06.772Z,14.95
2022-12-08T13:16:18.464Z,15.63
2022-12-08T13:17:26.312Z,14.30
2022-12-08T13:18:46.421Z,12.80
2022-12-08T13:19:51.721Z,13.63
2022-12-08T13:21:05.809Z,12.20
2022-12-08T13:22:45.115Z,12.55
2022-12-08T13:23:48.532Z,10.77
2022-12-08T13:24:50.108Z,10.60
2022-12-08T13:25:52.327Z,10.05
2022-12-08T13:27:05.930Z,11.00
2022-12-08T13:28:33.945Z,10.73
2022-12-08T13:29:36.060Z,11.07
2022-12-08T13:30:48.891Z,11.40
2022-12-08T13:32:23.035Z,11.98
2022-12-08T13:33:26.049Z,10.30
2022-12-08T13:34:53.829Z,12.30
2022-12-08T13:36:19.086Z,11.90
2022-12-08T13:37:30.856Z,11.65
2022-12-08T13:38:34.090Z,13.60
2022-12-08T13:39:41.316Z,13.43
2022-12-08T13:40:43.164Z,12.55
2022-12-08T13:41:49.514Z,13.82
2022-12-08T13:43:15.317Z,11.97
2022-12-08T13:45:18.726Z,12.35
2022-12-08T13:47:32.843Z,11.27
2022-12-08T13:49:52.732Z,11.88
2022-12-08T13:57:32.847Z,25.60
2022-12-08T13:58:36.489Z,11.38
2022-12-08T13:59:43.313Z,11.07
2022-12-08T14:00:57.429Z,12.85
2022-12-08T14:02:10.750Z,12.55
2022-12-08T14:03:12.702Z,12.13
2022-12-08T14:04:42.606Z,12.10
2022-12-08T14:06:11.089Z,12.93
2022-12-08T14:07:04.588Z,12.65
2022-12-08T14:08:09.091Z,12.73
2022-12-08T14:09:16.161Z,11.97
2022-12-08T14:10:21.281Z,12.18
2022-12-08T14:11:33.829Z,11.40
2022-12-08T14:12:35.488Z,13.57
2022-12-08T14:13:37.135Z,14.32
2022-12-08T14:15:01.947Z,14.18
2022-12-08T14:16:02.456Z,12.65
2022-12-08T14:17:06.015Z,10.82
2022-12-08T14:18:23.241Z,11.27